• Join FlightAware (Why Join?)
  • Login
  • US Flag 
01:14AM EDT


 

Airport Tracker/Info


-or-


 

Live Flight TrackerFlight Track Log ✈ ASQ5740 ✈ 14-Jul-2013 ✈ KIAD - KDTW

Flight Track Log - Related Links

Times and Time Zones

All times are in EDT time to prevent confusion due to time zone crossing. See the ASQ5740 flight status page for this flight to view local times or setup timezone preferences in your user account.

Time Position Orientation Groundspeed Altitude Reporting Facility
EDT Latitude Longitude Course Direction KTS MPH feet Rate Location/Type
08:27AM 38.9500 -77.5167 303° West 170 196 1,600  Level Potomac TRACON
08:28AM 38.9833 -77.5833 303° West 237 273 3,600 2,100 Climbing Potomac TRACON
08:29AM 39.0297 -77.6278 323° Northwest 290 334 5,600 2,160 Climbing Washington Center
08:30AM 39.0872 -77.6722 329° Northwest 309 356 7,700 2,340 Climbing Washington Center
08:31AM 39.1722 -77.6906 351° North 309 356 10,400 1,980 Climbing Washington Center
08:32AM 39.2606 -77.6528 18° North 284 327 11,700 1,320 Climbing Washington Center
08:33AM 39.3550 -77.6100 19° North 320 368 13,100 1,380 Climbing Washington Center
08:34AM 39.4556 -77.5831 12° North 342 394 14,500 1,320 Climbing Washington Center
08:35AM 39.5269 -77.6794 314° West 329 379 15,800 1,140 Climbing Washington Center
08:36AM 39.5369 -77.8194 275° West 308 354 16,900 1,020 Climbing Washington Center
08:37AM 39.5656 -77.9550 285° West 348 400 17,900 1,140 Climbing Washington Center
08:38AM 39.6025 -78.0856 290° West 372 428 19,200 1,020 Climbing Washington Center
08:39AM 39.6414 -78.2136 292° West 385 443 20,000 420 Climbing Washington Center
08:40AM 39.6781 -78.3281 293° West 397 457 20,000  Level Cleveland Center
08:41AM 39.7203 -78.4697 291° West 410 472 20,000 300 Level Cleveland Center
08:42AM 39.7625 -78.6117 291° West 420 483 20,700 840 Climbing Cleveland Center
08:43AM 39.8003 -78.7536 289° West 420 483 21,700 600 Climbing Cleveland Center
08:44AM 39.8400 -78.8933 290° West 420 483 22,000 300 Climbing Cleveland Center
08:45AM 39.8878 -79.0408 293° West 430 495 22,300 540 Climbing Cleveland Center
08:46AM 39.9272 -79.1836 290° West 430 495 23,100 780 Climbing Cleveland Center
08:47AM 39.9686 -79.3261 291° West 430 495 23,900 600 Climbing Cleveland Center
08:48AM 40.0283 -79.4581 301° West 425 489 24,400 600 Climbing Cleveland Center
08:49AM 40.0942 -79.5844 304° West 425 489 25,200 780 Climbing Cleveland Center
08:50AM 40.1597 -79.7139 304° West 425 489 26,000 360 Climbing Cleveland Center
08:51AM 40.2253 -79.8461 303° West 425 489 26,000  Level Cleveland Center
08:52AM 40.2950 -79.9814 304° West 441 507 26,000  Level Cleveland Center
08:53AM 40.3603 -80.1200 302° West 448 516 26,000  Level Cleveland Center
08:54AM 40.4314 -80.2611 304° West 453 521 26,000  Level Cleveland Center
08:55AM 40.4986 -80.3864 305° West 458 527 26,000  Level Cleveland Center
08:56AM 40.5694 -80.5256 304° West 463 533 26,000  Level Cleveland Center
08:57AM 40.6383 -80.6681 303° West 458 527 26,000  Level Cleveland Center
08:58AM 40.7089 -80.8078 304° West 458 527 26,000  Level Cleveland Center
08:59AM 40.7775 -80.9478 303° West 458 527 26,000  Level Cleveland Center
09:00AM 40.8519 -81.1075 302° West 463 533 26,000  Level Cleveland Center
09:01AM 40.9200 -81.2508 302° West 458 527 26,000  Level Cleveland Center
09:02AM 40.9900 -81.3919 303° West 458 527 26,000 -420 Level Cleveland Center
09:03AM 41.0597 -81.5386 302° West 464 534 25,200 -720 Descending Cleveland Center
09:04AM 41.1231 -81.6692 303° West 470 541 24,600 -600 Descending Cleveland Center
09:05AM 41.1986 -81.8194 304° West 477 549 24,000 -300 Descending Cleveland Center
09:06AM 41.2678 -81.9617 303° West 477 549 24,000 -240 Level Cleveland Center
09:07AM 41.3369 -82.1042 303° West 471 542 23,600 -1,500 Descending Cleveland Center
09:08AM 41.4161 -82.2611 304° West 471 542 21,100 -2,520 Descending Cleveland Center
09:09AM 41.4953 -82.3961 308° West 471 542 18,600 -2,340 Descending Cleveland Center
09:10AM 41.5442 -82.4697 312° West 436 502 17,300 -2,340 Descending Cleveland Center
09:10AM 41.6069 -82.5797 307° West 391 450 15,000 -2,220 Descending Cleveland Center
09:11AM 41.6717 -82.6903 308° West 379 436 13,100 -1,500 Descending Cleveland Center
09:12AM 41.7406 -82.7956 311° West 370 426 12,000 -600 Descending Cleveland Center
09:13AM 41.8078 -82.8786 317° Northwest 361 415 12,000  Level Cleveland Center
09:14AM 41.8361 -82.9158 316° Northwest 361 415 12,000  Level Cleveland Center
09:14AM 41.8831 -82.9678 321° Northwest 358 412 12,000  Level Cleveland Center
09:15AM 41.9114 -83.0022 318° Northwest 356 410 12,000  Level Cleveland Center
09:15AM 41.9561 -83.0569 318° Northwest 356 410 12,000  Level Cleveland Center
09:16AM 42.0333 -83.1467 319° Northwest 344 396 12,000  Level Cleveland Center
09:17AM 42.0986 -83.2108 324° Northwest 300 345 12,000 -1,020 Level Cleveland Center
09:18AM 42.1819 -83.2228 354° North 306 352 10,000 -2,040 Descending Cleveland Center
09:19AM 42.2536 -83.1836 22° Northeast 293 337 8,100 -2,040 Descending Cleveland Center
09:20AM 42.3275 -83.1475 20° North 281 323 6,100 -2,100 Descending Cleveland Center
09:21AM 42.3958 -83.1669 348° North 274 315 3,900 -2,220 Descending Cleveland Center